Time;durP1;ratioP1;P1;durP2;ratioP2;P2;SDS_P1;SDS_P2;PMS_P1;PMS_P2;Temp;Humidity;BMP_temperature;BMP_pressure;BME280_temperature;BME280_humidity;BME280_pressure;Samples;Min_cycle;Max_cycle;Signal;HPM_P1;HPM_P2
2021/09/01 00:10:37;;;;;;;12.77;11.67;;;15.50;99.90;;;;;;10487819;23;20240;-84
2021/09/01 00:15:39;;;;;;;12.20;11.10;;;15.40;99.90;;;;;;10477374;28;20647;-84
2021/09/01 00:20:41;;;;;;;13.67;12.37;;;15.40;99.90;;;;;;10448867;28;20228;-85
2021/09/01 00:25:45;;;;;;;13.10;12.00;;;15.40;99.90;;;;;;10517838;28;20247;-85
2021/09/01 00:30:47;;;;;;;13.03;11.70;;;15.40;99.90;;;;;;10474410;28;20592;-85
2021/09/01 00:35:49;;;;;;;12.83;11.73;;;15.40;99.90;;;;;;10473339;28;20188;-84
2021/09/01 00:40:53;;;;;;;12.90;11.87;;;15.30;99.90;;;;;;10488606;28;20250;-85
2021/09/01 00:45:56;;;;;;;13.33;12.20;;;15.30;99.90;;;;;;10477538;28;20676;-85
2021/09/01 00:50:58;;;;;;;12.53;11.50;;;15.30;99.90;;;;;;10423045;28;20656;-84
2021/09/01 00:56:02;;;;;;;13.60;12.50;;;15.30;99.90;;;;;;10469313;28;20720;-85
2021/09/01 01:01:15;;;;;;;14.90;13.60;;;15.20;99.90;;;;;;10481784;28;20220;-85
2021/09/01 01:06:18;;;;;;;15.23;13.83;;;15.20;99.90;;;;;;10459080;28;20222;-85
2021/09/01 01:11:22;;;;;;;15.70;13.53;;;15.20;99.90;;;;;;10495279;28;20236;-85
2021/09/01 01:16:26;;;;;;;15.70;14.20;;;15.20;99.90;;;;;;10469423;28;20241;-85
2021/09/01 01:21:29;;;;;;;15.40;13.87;;;15.20;99.90;;;;;;10449379;28;20235;-85
2021/09/01 01:26:33;;;;;;;14.67;13.37;;;15.20;99.90;;;;;;10444754;28;20212;-85
2021/09/01 01:31:37;;;;;;;14.77;13.37;;;15.20;99.90;;;;;;10445121;28;20215;-85
2021/09/01 01:36:40;;;;;;;16.60;14.20;;;15.10;99.90;;;;;;10429654;28;20196;-85
2021/09/01 01:41:43;;;;;;;16.33;14.73;;;15.20;99.90;;;;;;10433681;28;20219;-85
2021/09/01 01:46:46;;;;;;;16.00;14.60;;;15.20;99.90;;;;;;10444873;28;20227;-85
2021/09/01 01:51:51;;;;;;;15.73;14.40;;;15.20;99.90;;;;;;10438991;28;20228;-85
2021/09/01 01:56:55;;;;;;;16.07;14.57;;;15.20;99.90;;;;;;10451046;28;20196;-85
2021/09/01 02:01:57;;;;;;;15.47;13.97;;;15.20;99.90;;;;;;10447457;28;20203;-85
2021/09/01 02:06:59;;;;;;;14.83;13.53;;;15.30;99.90;;;;;;10505636;28;20242;-85
2021/09/01 02:12:03;;;;;;;16.60;15.10;;;15.30;99.90;;;;;;10448182;28;20192;-85
2021/09/01 02:17:05;;;;;;;16.00;14.50;;;15.20;99.90;;;;;;10448290;28;20287;-85
2021/09/01 02:22:08;;;;;;;17.40;15.47;;;15.30;99.90;;;;;;10400093;28;20208;-85
2021/09/01 02:27:11;;;;;;;17.17;15.33;;;15.20;99.90;;;;;;10407678;28;20266;-85
2021/09/01 02:32:14;;;;;;;16.27;14.73;;;15.20;99.90;;;;;;10369239;28;20200;-85
2021/09/01 02:37:16;;;;;;;16.93;15.13;;;15.20;99.90;;;;;;10390777;28;20691;-85
2021/09/01 02:42:20;;;;;;;16.40;14.90;;;15.10;99.90;;;;;;10391371;28;20571;-85
2021/09/01 02:47:22;;;;;;;18.17;16.47;;;15.00;99.90;;;;;;10391047;28;20252;-85
2021/09/01 02:52:24;;;;;;;17.53;15.73;;;15.00;99.90;;;;;;10445258;28;20208;-85
2021/09/01 02:57:28;;;;;;;16.53;14.97;;;14.90;99.90;;;;;;10432913;28;20224;-85
2021/09/01 03:02:30;;;;;;;17.97;16.17;;;14.80;99.90;;;;;;10449304;28;20208;-85
2021/09/01 03:07:32;;;;;;;18.37;16.60;;;14.90;99.90;;;;;;10433194;28;20234;-85
2021/09/01 03:12:35;;;;;;;17.93;16.33;;;14.80;99.90;;;;;;10433120;28;20257;-85
2021/09/01 03:17:37;;;;;;;18.43;16.53;;;14.80;99.90;;;;;;10433402;28;20356;-84
2021/09/01 03:22:40;;;;;;;19.50;16.60;;;14.80;99.90;;;;;;10451588;28;20210;-85
2021/09/01 03:27:43;;;;;;;17.80;16.17;;;14.80;99.90;;;;;;10420129;28;20775;-85
2021/09/01 03:32:45;;;;;;;17.93;16.03;;;14.80;99.90;;;;;;10436469;28;20571;-85
2021/09/01 03:37:47;;;;;;;18.93;17.03;;;14.70;99.90;;;;;;10436393;28;20242;-85
2021/09/01 03:42:51;;;;;;;19.80;17.90;;;14.70;99.90;;;;;;10418714;28;20203;-85
2021/09/01 03:47:53;;;;;;;20.00;17.90;;;14.70;99.90;;;;;;10419202;28;20237;-85
2021/09/01 03:52:55;;;;;;;20.10;18.00;;;14.70;99.90;;;;;;10419450;28;20198;-85
2021/09/01 03:57:59;;;;;;;21.23;19.23;;;14.70;99.90;;;;;;10418666;28;20214;-85
2021/09/01 04:03:01;;;;;;;20.90;18.80;;;14.60;99.90;;;;;;10418655;28;20591;-85
2021/09/01 04:08:03;;;;;;;19.33;17.33;;;14.60;99.90;;;;;;10418260;28;20796;-85
2021/09/01 04:13:07;;;;;;;20.43;18.33;;;14.60;99.90;;;;;;10418460;28;20792;-85
2021/09/01 04:18:09;;;;;;;19.97;17.87;;;14.60;99.90;;;;;;10435076;28;20259;-85
2021/09/01 04:23:11;;;;;;;19.37;17.30;;;14.60;99.90;;;;;;10417994;28;20282;-85
2021/09/01 04:28:14;;;;;;;17.53;15.83;;;14.50;99.90;;;;;;10469087;28;20269;-85
2021/09/01 04:33:16;;;;;;;19.97;18.07;;;14.50;99.90;;;;;;10442765;28;20207;-85
2021/09/01 04:38:21;;;;;;;19.60;17.60;;;14.50;99.90;;;;;;10428072;28;20216;-84
2021/09/01 04:43:25;;;;;;;15.87;14.03;;;14.50;99.90;;;;;;10428455;28;20203;-86
2021/09/01 04:48:28;;;;;;;19.23;17.43;;;14.50;99.90;;;;;;10420032;28;20220;-86
2021/09/01 04:53:30;;;;;;;19.90;18.00;;;14.50;99.90;;;;;;10430143;28;20206;-86
2021/09/01 04:58:35;;;;;;;18.30;16.50;;;14.50;99.90;;;;;;10417591;28;20318;-86
2021/09/01 05:03:40;;;;;;;19.27;17.47;;;14.50;99.90;;;;;;10447742;28;22491;-86
2021/09/01 05:08:44;;;;;;;20.70;18.50;;;14.60;99.90;;;;;;10472223;28;20228;-86
2021/09/01 05:13:48;;;;;;;23.30;18.73;;;14.60;99.90;;;;;;10459979;28;20208;-86
2021/09/01 05:18:50;;;;;;;22.00;19.27;;;14.60;99.90;;;;;;10446999;28;20219;-87
2021/09/01 05:23:55;;;;;;;19.97;18.13;;;14.70;99.90;;;;;;10430249;28;20225;-86
2021/09/01 05:29:02;;;;;;;21.93;19.77;;;14.70;99.90;;;;;;10448022;28;20211;-86
2021/09/01 05:34:05;;;;;;;22.33;20.17;;;14.80;99.90;;;;;;10432603;28;20563;-86
2021/09/01 05:39:07;;;;;;;23.07;20.87;;;14.80;99.90;;;;;;10433506;28;20318;-86
2021/09/01 05:44:12;;;;;;;25.13;20.00;;;14.90;99.90;;;;;;10451452;28;20643;-86
2021/09/01 05:49:15;;;;;;;21.80;19.80;;;14.90;99.90;;;;;;10441947;28;20273;-86
2021/09/01 05:54:17;;;;;;;20.33;18.53;;;15.00;99.90;;;;;;10425840;28;20203;-87
2021/09/01 05:59:24;;;;;;;21.63;19.47;;;15.10;99.90;;;;;;10426196;28;20714;-86
2021/09/01 06:04:31;;;;;;;22.33;20.03;;;15.20;99.90;;;;;;10426952;28;20223;-86
2021/09/01 06:09:35;;;;;;;19.73;17.93;;;15.20;99.90;;;;;;10434968;28;20242;-86
2021/09/01 06:14:39;;;;;;;24.10;21.87;;;15.30;99.90;;;;;;10436426;28;20195;-86
2021/09/01 06:19:41;;;;;;;25.40;22.97;;;15.40;99.90;;;;;;10385745;28;20317;-87
2021/09/01 06:24:43;;;;;;;22.57;20.47;;;15.50;99.90;;;;;;10422505;28;20257;-86
2021/09/01 06:29:47;;;;;;;23.03;20.83;;;15.60;99.90;;;;;;10422309;28;20229;-87
2021/09/01 06:34:49;;;;;;;23.50;21.10;;;15.60;99.90;;;;;;10485308;28;20196;-86
2021/09/01 06:39:53;;;;;;;23.60;21.20;;;15.70;99.90;;;;;;10482032;28;20299;-86
2021/09/01 06:44:57;;;;;;;22.23;20.23;;;15.80;99.90;;;;;;10522765;28;20231;-86
2021/09/01 06:49:59;;;;;;;25.07;22.00;;;15.90;99.90;;;;;;10522722;28;20657;-85
2021/09/01 06:55:01;;;;;;;24.97;22.37;;;15.90;99.90;;;;;;10471112;28;20210;-86
2021/09/01 07:00:06;;;;;;;26.30;23.67;;;16.10;99.90;;;;;;10454726;28;20212;-85
2021/09/01 07:05:11;;;;;;;24.40;21.80;;;16.30;99.90;;;;;;10440278;28;20586;-85
2021/09/01 07:10:14;;;;;;;24.90;22.30;;;16.40;99.90;;;;;;10466100;28;20296;-85
2021/09/01 07:15:17;;;;;;;24.43;22.13;;;16.50;99.90;;;;;;10448477;28;20211;-85
2021/09/01 07:20:21;;;;;;;23.70;21.40;;;16.60;99.90;;;;;;10429036;28;20229;-85
2021/09/01 07:25:23;;;;;;;24.30;21.97;;;16.70;99.90;;;;;;10424719;28;20220;-85
2021/09/01 07:30:27;;;;;;;22.53;20.20;;;16.80;99.90;;;;;;10391515;28;20308;-85
2021/09/01 07:35:29;;;;;;;24.53;22.03;;;16.80;99.90;;;;;;10392440;28;20211;-86
2021/09/01 07:40:31;;;;;;;25.97;23.33;;;16.90;99.90;;;;;;10409049;28;20311;-86
2021/09/01 07:45:35;;;;;;;30.20;24.70;;;17.00;99.90;;;;;;10391747;28;20220;-85
2021/09/01 07:50:37;;;;;;;26.87;24.17;;;17.20;99.90;;;;;;10363440;28;20450;-86
2021/09/01 07:55:39;;;;;;;27.20;24.30;;;17.40;99.90;;;;;;10436705;28;20627;-85
2021/09/01 08:00:43;;;;;;;25.37;22.80;;;17.50;99.90;;;;;;10369286;28;20678;-86
2021/09/01 08:05:45;;;;;;;23.23;20.93;;;17.70;99.90;;;;;;10420746;28;20219;-86
2021/09/01 08:10:47;;;;;;;23.30;21.10;;;17.70;99.90;;;;;;10419777;28;20234;-86
2021/09/01 08:15:50;;;;;;;22.27;20.17;;;17.70;99.90;;;;;;10426724;28;20203;-86
2021/09/01 08:20:53;;;;;;;20.03;18.13;;;17.60;99.90;;;;;;10444132;28;20650;-85
2021/09/01 08:25:55;;;;;;;19.27;17.20;;;17.60;99.90;;;;;;10436024;28;20214;-85
2021/09/01 08:30:58;;;;;;;19.53;17.60;;;17.60;99.90;;;;;;10424978;28;20260;-85
2021/09/01 08:36:00;;;;;;;19.00;17.20;;;17.50;99.90;;;;;;10441343;28;20206;-85
2021/09/01 08:41:03;;;;;;;17.30;15.70;;;17.50;99.90;;;;;;10417684;28;20223;-85
2021/09/01 08:46:08;;;;;;;18.20;16.50;;;17.60;99.90;;;;;;10417250;28;20250;-84
2021/09/01 08:51:11;;;;;;;16.63;15.13;;;17.60;99.90;;;;;;10518344;28;20259;-85
2021/09/01 08:56:13;;;;;;;18.40;16.70;;;17.60;99.90;;;;;;10394001;28;20196;-86
2021/09/01 09:01:41;;;;;;;17.67;16.07;;;17.70;99.90;;;;;;10419308;28;20216;-85
2021/09/01 09:06:45;;;;;;;17.00;15.50;;;17.70;99.90;;;;;;10431263;28;20754;-85
2021/09/01 09:11:48;;;;;;;17.97;16.17;;;17.80;99.90;;;;;;10519899;28;20364;-85
2021/09/01 09:17:03;;;;;;;15.10;13.80;;;17.80;99.90;;;;;;10432092;28;20571;-85
2021/09/01 09:22:06;;;;;;;13.93;12.73;;;17.90;99.90;;;;;;10336016;28;20214;-86
2021/09/01 09:27:08;;;;;;;14.17;12.87;;;17.90;99.90;;;;;;10416736;28;20276;-85
2021/09/01 09:32:12;;;;;;;16.33;14.57;;;18.00;99.90;;;;;;10416292;28;20195;-85
2021/09/01 09:37:17;;;;;;;17.07;14.00;;;18.20;99.90;;;;;;10416420;28;20221;-85
2021/09/01 09:42:30;;;;;;;12.60;11.50;;;18.40;99.90;;;;;;10419163;28;20202;-86
2021/09/01 09:47:48;;;;;;;12.80;11.43;;;18.70;99.90;;;;;;10424271;28;20769;-86
2021/09/01 09:52:50;;;;;;;20.93;11.23;;;19.00;99.90;;;;;;10460213;28;20203;-86
2021/09/01 09:57:55;;;;;;;13.03;9.13;;;19.40;99.90;;;;;;10441692;28;20219;-86
2021/09/01 10:02:58;;;;;;;10.53;9.67;;;19.80;99.90;;;;;;10468691;28;20210;-86
2021/09/01 10:08:02;;;;;;;17.03;10.67;;;20.20;99.90;;;;;;10439474;28;20671;-86
2021/09/01 10:13:04;;;;;;;10.57;9.47;;;20.40;99.90;;;;;;10439917;28;20203;-86
2021/09/01 10:18:10;;;;;;;8.70;8.10;;;20.40;99.90;;;;;;10455725;28;20235;-86
2021/09/01 10:23:12;;;;;;;8.70;8.00;;;20.20;99.90;;;;;;10453967;28;20217;-86
2021/09/01 10:28:35;;;;;;;9.17;7.77;;;20.00;99.90;;;;;;10460084;28;20235;-86
2021/09/01 10:39:16;;;;;;;8.40;7.70;;;19.70;99.90;;;;;;10495717;28;20222;-85
2021/09/01 10:44:22;;;;;;;6.50;6.10;;;19.50;99.90;;;;;;10483647;28;20196;-85
2021/09/01 10:49:28;;;;;;;7.37;6.80;;;19.40;99.90;;;;;;10502810;28;20223;-86
2021/09/01 10:54:32;;;;;;;8.80;8.00;;;19.30;99.90;;;;;;10472906;28;20195;-85
2021/09/01 10:59:38;;;;;;;7.80;7.10;;;19.30;99.90;;;;;;10473312;28;20216;-85
2021/09/01 11:04:48;;;;;;;8.40;7.70;;;19.30;99.90;;;;;;10494479;28;20204;-85
2021/09/01 11:09:52;;;;;;;7.80;7.13;;;19.30;99.90;;;;;;10434527;28;20311;-85
2021/09/01 11:14:55;;;;;;;7.70;7.10;;;19.40;99.90;;;;;;10451958;28;20187;-85
2021/09/01 11:20:00;;;;;;;7.23;6.67;;;19.40;99.90;;;;;;10507693;28;20219;-86
2021/09/01 11:25:05;;;;;;;7.93;7.33;;;19.50;99.90;;;;;;10479748;28;20762;-85
2021/09/01 11:30:10;;;;;;;8.00;7.30;;;19.60;99.90;;;;;;10496551;28;20216;-86
2021/09/01 11:35:20;;;;;;;7.73;7.13;;;19.60;99.90;;;;;;10465731;28;20542;-86
2021/09/01 11:40:29;;;;;;;7.13;6.53;;;19.70;99.90;;;;;;10456378;28;20219;-86
2021/09/01 11:45:32;;;;;;;7.07;6.47;;;19.80;99.90;;;;;;10463892;28;20250;-86
2021/09/01 11:50:42;;;;;;;6.40;6.00;;;19.90;99.90;;;;;;10478479;28;20764;-86
2021/09/01 11:55:45;;;;;;;6.00;5.53;;;20.20;99.90;;;;;;10463554;28;20192;-86
2021/09/01 12:00:48;;;;;;;6.40;5.90;;;20.30;99.90;;;;;;10486743;28;20208;-86
2021/09/01 12:06:06;;;;;;;6.23;5.73;;;20.30;99.90;;;;;;10500855;28;20668;-86
2021/09/01 12:11:08;;;;;;;5.80;5.30;;;20.30;99.90;;;;;;10524214;23;20223;-84
2021/09/01 12:16:11;;;;;;;7.90;7.20;;;20.40;99.90;;;;;;10524441;28;20192;-82
2021/09/01 12:21:14;;;;;;;6.33;5.83;;;20.60;99.90;;;;;;10473881;28;20254;-83
2021/09/01 12:26:17;;;;;;;6.73;6.17;;;20.70;99.90;;;;;;10505307;28;20699;-83
2021/09/01 12:31:25;;;;;;;6.57;5.97;;;20.80;99.90;;;;;;10464371;28;20224;-81
2021/09/01 12:36:29;;;;;;;7.33;6.63;;;20.70;99.90;;;;;;10459120;28;20195;-81
2021/09/01 12:41:31;;;;;;;6.70;6.20;;;20.60;99.90;;;;;;10329235;28;20234;-81
2021/09/01 12:46:33;;;;;;;5.53;5.13;;;20.50;99.90;;;;;;10416554;28;20231;-81
2021/09/01 12:51:37;;;;;;;5.80;5.23;;;20.40;99.90;;;;;;10456797;28;20219;-81
2021/09/01 12:56:41;;;;;;;6.17;5.57;;;20.30;99.90;;;;;;10488360;28;20300;-81
2021/09/01 13:01:43;;;;;;;5.93;5.43;;;20.40;99.90;;;;;;10494686;28;20252;-81
2021/09/01 13:06:47;;;;;;;6.33;5.83;;;20.60;99.90;;;;;;10472052;28;20634;-81
2021/09/01 13:11:49;;;;;;;6.60;6.10;;;20.60;99.90;;;;;;10292675;28;20250;-81
2021/09/01 13:16:51;;;;;;;6.60;6.10;;;20.50;99.90;;;;;;10424369;28;20288;-81
2021/09/01 13:21:55;;;;;;;6.10;5.70;;;20.40;99.90;;;;;;10487121;28;20238;-84
2021/09/01 13:26:57;;;;;;;7.80;7.20;;;20.40;99.90;;;;;;10475718;28;20240;-82
2021/09/01 13:31:59;;;;;;;8.23;7.37;;;20.50;99.90;;;;;;10460142;28;20357;-81
2021/09/01 13:37:03;;;;;;;19.83;17.87;;;20.70;99.90;;;;;;10498660;28;20208;-83
2021/09/01 13:42:06;;;;;;;11.23;10.13;;;20.90;99.90;;;;;;10485950;28;20248;-82
2021/09/01 13:47:08;;;;;;;6.93;6.23;;;20.90;99.90;;;;;;10459289;28;20216;-82
2021/09/01 13:52:11;;;;;;;11.60;10.60;;;20.80;99.90;;;;;;10477398;28;20228;-82
2021/09/01 13:57:15;;;;;;;11.27;10.27;;;20.70;99.90;;;;;;10496020;28;20631;-82
2021/09/01 14:02:18;;;;;;;10.83;9.90;;;20.60;99.90;;;;;;10415291;28;20228;-84
2021/09/01 14:07:21;;;;;;;12.00;11.00;;;20.80;99.90;;;;;;10375776;28;20223;-82
2021/09/01 14:12:23;;;;;;;13.20;11.90;;;21.00;99.90;;;;;;10475087;28;20252;-83
2021/09/01 14:17:26;;;;;;;8.70;7.90;;;21.10;99.90;;;;;;10457673;28;20578;-83
2021/09/01 14:22:29;;;;;;;8.40;7.80;;;21.20;99.90;;;;;;10333467;28;20568;-83
2021/09/01 14:27:31;;;;;;;5.93;5.00;;;21.00;99.90;;;;;;10352143;28;20710;-82
2021/09/01 14:32:33;;;;;;;5.83;5.43;;;20.70;99.90;;;;;;10341754;28;20279;-83
2021/09/01 14:37:37;;;;;;;8.13;5.23;;;20.60;99.90;;;;;;10442145;28;20284;-82
2021/09/01 14:42:39;;;;;;;9.27;8.50;;;20.40;99.90;;;;;;10481604;28;20204;-82
2021/09/01 14:47:42;;;;;;;7.83;7.20;;;20.30;99.90;;;;;;10465779;28;20311;-82
2021/09/01 14:52:45;;;;;;;8.53;7.77;;;20.30;99.90;;;;;;10340527;28;20587;-81
2021/09/01 14:57:48;;;;;;;6.20;5.70;;;20.30;99.90;;;;;;10409432;28;20217;-82
2021/09/01 15:02:50;;;;;;;6.00;5.40;;;20.30;99.90;;;;;;10488457;28;20205;-82
2021/09/01 15:07:54;;;;;;;6.30;5.80;;;20.30;99.90;;;;;;10488879;28;20232;-82
2021/09/01 15:12:56;;;;;;;6.87;6.30;;;20.10;99.90;;;;;;10488489;28;20225;-84
2021/09/01 15:17:58;;;;;;;7.27;6.60;;;20.10;99.90;;;;;;10506962;28;20299;-84
2021/09/01 15:23:01;;;;;;;7.03;6.53;;;20.10;99.90;;;;;;10488444;28;20640;-84
2021/09/01 15:28:04;;;;;;;7.37;6.67;;;20.10;99.90;;;;;;10490038;28;20224;-85
2021/09/01 15:33:06;;;;;;;6.30;5.80;;;20.20;99.90;;;;;;10485229;28;20196;-85
2021/09/01 15:38:09;;;;;;;5.30;4.90;;;20.30;99.90;;;;;;10464178;28;20310;-84
2021/09/01 15:43:32;;;;;;;4.70;4.30;;;20.30;99.90;;;;;;10467553;28;20570;-84
2021/09/01 15:48:39;;;;;;;5.60;5.10;;;20.30;99.90;;;;;;10479259;28;20263;-83
2021/09/01 15:53:45;;;;;;;5.23;4.83;;;20.20;99.90;;;;;;10468304;28;20196;-83
2021/09/01 15:58:47;;;;;;;6.00;5.50;;;20.10;99.90;;;;;;10476783;28;20220;-84
2021/09/01 16:03:50;;;;;;;4.47;4.17;;;19.90;99.90;;;;;;10478056;28;20204;-84
2021/09/01 16:08:54;;;;;;;5.83;5.43;;;19.90;99.90;;;;;;10402025;28;20244;-83
2021/09/01 16:14:11;;;;;;;5.37;4.97;;;20.10;99.90;;;;;;10348062;28;20219;-84
2021/09/01 16:19:26;;;;;;;5.63;5.23;;;20.30;99.90;;;;;;10336420;28;20603;-84
2021/09/01 16:24:31;;;;;;;4.90;4.50;;;20.40;99.90;;;;;;10285970;28;20219;-83
2021/09/01 16:29:34;;;;;;;5.70;5.27;;;20.30;99.90;;;;;;10336556;28;20243;-84
2021/09/01 16:34:38;;;;;;;4.97;4.67;;;20.30;99.90;;;;;;10337002;28;20208;-83
2021/09/01 16:39:42;;;;;;;5.00;4.60;;;20.10;99.90;;;;;;10352299;28;20347;-84
2021/09/01 16:44:46;;;;;;;6.03;5.43;;;20.00;99.90;;;;;;10269987;28;20208;-84
2021/09/01 16:49:48;;;;;;;5.90;5.30;;;19.90;99.90;;;;;;10286419;28;20687;-84
2021/09/01 16:54:56;;;;;;;5.90;5.40;;;19.90;99.90;;;;;;10352677;28;20216;-84
2021/09/01 17:00:02;;;;;;;6.13;5.53;;;19.80;99.90;;;;;;10352529;28;20699;-83
2021/09/01 17:05:07;;;;;;;6.00;5.40;;;19.70;99.90;;;;;;10285846;28;20254;-83
2021/09/01 17:10:11;;;;;;;6.10;5.50;;;19.60;99.90;;;;;;10465373;28;20263;-82
2021/09/01 17:15:14;;;;;;;6.50;5.50;;;19.60;99.90;;;;;;10461522;28;20211;-83
2021/09/01 17:20:17;;;;;;;6.10;5.60;;;19.50;99.90;;;;;;10477792;28;20216;-83
2021/09/01 17:25:20;;;;;;;5.67;5.10;;;19.40;99.90;;;;;;10478682;28;20204;-83
2021/09/01 17:30:25;;;;;;;6.17;5.67;;;19.30;99.90;;;;;;10477527;28;20714;-84
2021/09/01 17:35:27;;;;;;;7.43;5.50;;;19.20;99.90;;;;;;10494147;28;20287;-84
2021/09/01 17:40:30;;;;;;;6.80;6.10;;;19.10;99.90;;;;;;10488473;28;20224;-84
2021/09/01 17:45:34;;;;;;;5.80;5.33;;;19.00;99.90;;;;;;10478554;28;20204;-83
2021/09/01 17:50:36;;;;;;;6.37;5.60;;;18.90;99.90;;;;;;10493671;28;20571;-83
2021/09/01 17:55:41;;;;;;;6.30;5.90;;;18.80;99.90;;;;;;10476465;28;20211;-84
2021/09/01 18:00:43;;;;;;;7.03;6.43;;;18.70;99.90;;;;;;10492882;28;20220;-84
2021/09/01 18:05:45;;;;;;;6.50;6.00;;;18.60;99.90;;;;;;10484276;28;20204;-83
2021/09/01 18:10:49;;;;;;;7.53;6.83;;;18.50;99.90;;;;;;10456526;28;20243;-83
2021/09/01 18:15:52;;;;;;;7.07;6.37;;;18.40;99.90;;;;;;10445200;28;20288;-83
2021/09/01 18:20:54;;;;;;;6.50;5.90;;;18.30;99.90;;;;;;10447538;28;20221;-84
2021/09/01 18:25:57;;;;;;;11.30;7.13;;;18.30;99.90;;;;;;10445219;28;20197;-84
2021/09/01 18:31:00;;;;;;;7.30;6.70;;;18.20;99.90;;;;;;10442519;28;20233;-83
2021/09/01 18:36:02;;;;;;;7.90;7.13;;;18.10;99.90;;;;;;10462870;28;20204;-83
2021/09/01 18:41:13;;;;;;;6.80;6.30;;;18.00;99.90;;;;;;10498147;28;20575;-84
2021/09/01 18:46:15;;;;;;;7.23;6.53;;;18.00;99.90;;;;;;10502744;28;20664;-84
2021/09/01 18:51:18;;;;;;;6.23;5.73;;;17.90;99.90;;;;;;10504074;28;20672;-84
2021/09/01 18:56:22;;;;;;;6.43;5.93;;;17.90;99.90;;;;;;10506488;28;20200;-83
2021/09/01 19:01:32;;;;;;;6.70;6.10;;;17.80;99.90;;;;;;10505067;28;20316;-84
2021/09/01 19:06:42;;;;;;;6.80;6.20;;;17.70;99.90;;;;;;10506719;28;20217;-84
2021/09/01 19:11:45;;;;;;;7.60;6.90;;;17.60;99.90;;;;;;10452366;28;20237;-84
2021/09/01 19:16:48;;;;;;;7.13;6.57;;;17.50;99.90;;;;;;10463689;28;20201;-83
2021/09/01 19:21:50;;;;;;;7.30;6.60;;;17.50;99.90;;;;;;10450792;28;20403;-84
2021/09/01 19:26:55;;;;;;;6.23;5.73;;;17.40;99.90;;;;;;10473505;28;20232;-84
2021/09/01 19:31:59;;;;;;;8.27;7.47;;;17.40;99.90;;;;;;10465556;28;20225;-84
2021/09/01 19:37:03;;;;;;;5.90;5.40;;;17.30;99.90;;;;;;10432728;28;20205;-84
2021/09/01 19:42:06;;;;;;;7.10;6.57;;;17.20;99.90;;;;;;10511627;28;20259;-83
2021/09/01 19:47:11;;;;;;;7.27;6.57;;;17.20;99.90;;;;;;10504847;28;20218;-84
2021/09/01 19:52:17;;;;;;;8.30;7.50;;;17.10;99.90;;;;;;10501381;28;20656;-84
2021/09/01 19:57:23;;;;;;;8.43;7.73;;;17.10;99.90;;;;;;10499203;28;20193;-83
2021/09/01 20:02:27;;;;;;;9.13;8.33;;;17.00;99.90;;;;;;10501991;28;20216;-84
2021/09/01 20:07:29;;;;;;;8.87;8.17;;;17.10;99.90;;;;;;10503507;28;20718;-84
2021/09/01 20:12:33;;;;;;;9.37;8.57;;;16.90;99.90;;;;;;10484490;28;20299;-84
2021/09/01 20:17:36;;;;;;;10.47;9.60;;;16.90;99.90;;;;;;10501543;28;20203;-83
2021/09/01 20:22:39;;;;;;;10.03;9.13;;;16.80;99.90;;;;;;10482012;28;20736;-84
2021/09/01 20:27:43;;;;;;;9.63;8.70;;;16.80;99.90;;;;;;10481359;28;20216;-84
2021/09/01 20:32:46;;;;;;;9.53;8.53;;;16.80;99.90;;;;;;10482590;28;20197;-84
2021/09/01 20:37:48;;;;;;;8.60;6.80;;;16.70;99.90;;;;;;10500732;28;20232;-84
2021/09/01 20:42:54;;;;;;;7.63;7.03;;;16.70;99.90;;;;;;10500967;28;20200;-83
2021/09/01 20:47:57;;;;;;;10.10;9.20;;;16.60;99.90;;;;;;10484078;28;20308;-84
2021/09/01 20:53:01;;;;;;;14.90;13.50;;;16.60;99.90;;;;;;10502269;28;20200;-83
2021/09/01 20:58:05;;;;;;;10.10;9.10;;;16.50;99.90;;;;;;10502296;28;20214;-83
2021/09/01 21:03:08;;;;;;;8.00;7.30;;;16.50;99.90;;;;;;10502445;28;20196;-82
2021/09/01 21:08:12;;;;;;;9.83;8.90;;;16.40;99.90;;;;;;10486463;28;20237;-82
2021/09/01 21:13:16;;;;;;;11.30;10.27;;;16.40;99.90;;;;;;10496173;28;20196;-83
2021/09/01 21:18:20;;;;;;;9.37;8.57;;;16.40;99.90;;;;;;10465728;28;20771;-83
2021/09/01 21:23:26;;;;;;;8.10;7.40;;;16.30;99.90;;;;;;10481485;28;20267;-83
2021/09/01 21:28:30;;;;;;;8.33;7.67;;;16.20;99.90;;;;;;10483500;28;20228;-83
2021/09/01 21:33:37;;;;;;;8.47;7.77;;;16.20;99.90;;;;;;10500491;28;20215;-83
2021/09/01 21:38:40;;;;;;;8.10;7.40;;;16.20;99.90;;;;;;10482060;28;20259;-83
2021/09/01 21:43:47;;;;;;;7.50;6.90;;;16.20;99.90;;;;;;10503599;28;20193;-82
2021/09/01 21:48:49;;;;;;;8.80;8.00;;;16.10;99.90;;;;;;10481034;28;20316;-83
2021/09/01 21:53:51;;;;;;;7.67;6.97;;;16.10;99.90;;;;;;10481129;28;20196;-82
2021/09/01 21:58:55;;;;;;;7.40;6.80;;;16.00;99.90;;;;;;10482493;28;20219;-83
2021/09/01 22:03:57;;;;;;;10.03;9.13;;;16.00;99.90;;;;;;10483864;28;20189;-84
2021/09/01 22:08:59;;;;;;;6.93;6.37;;;16.00;99.90;;;;;;10499187;28;20235;-83
2021/09/01 22:14:03;;;;;;;7.50;6.23;;;15.90;99.90;;;;;;10501226;28;20759;-83
2021/09/01 22:19:06;;;;;;;7.90;7.30;;;15.90;99.90;;;;;;10465889;28;20699;-83
2021/09/01 22:24:08;;;;;;;9.50;8.67;;;15.90;99.90;;;;;;10464173;28;20227;-83
2021/09/01 22:29:12;;;;;;;8.33;7.57;;;15.80;99.90;;;;;;10487967;28;20235;-84
2021/09/01 22:34:14;;;;;;;7.27;6.77;;;15.80;99.90;;;;;;10482156;28;20197;-84
2021/09/01 22:39:16;;;;;;;6.77;6.17;;;15.80;99.90;;;;;;10502459;28;20700;-84
2021/09/01 22:44:20;;;;;;;17.33;13.03;;;15.70;99.90;;;;;;10501335;28;20221;-83
2021/09/01 22:49:22;;;;;;;11.83;10.70;;;15.60;99.90;;;;;;10472144;28;20707;-83
2021/09/01 22:54:24;;;;;;;12.43;11.33;;;15.60;99.90;;;;;;10498691;28;20197;-83
2021/09/01 22:59:27;;;;;;;9.90;9.10;;;15.60;99.90;;;;;;10523413;28;20752;-83
2021/09/01 23:04:29;;;;;;;7.90;7.30;;;15.60;99.90;;;;;;10489117;28;20293;-83
2021/09/01 23:09:31;;;;;;;7.77;6.40;;;15.60;99.90;;;;;;10507517;28;20251;-83
2021/09/01 23:14:35;;;;;;;7.43;6.83;;;15.60;99.90;;;;;;10491918;28;20570;-83
2021/09/01 23:19:37;;;;;;;8.10;6.93;;;15.50;99.90;;;;;;10490452;28;20223;-83
2021/09/01 23:24:39;;;;;;;6.37;5.87;;;15.50;99.90;;;;;;10491890;28;20216;-83
2021/09/01 23:29:43;;;;;;;7.10;6.50;;;15.50;99.90;;;;;;10490690;28;20324;-84
2021/09/01 23:34:45;;;;;;;6.60;6.10;;;15.50;99.90;;;;;;10510739;28;20276;-83
2021/09/01 23:39:47;;;;;;;7.03;6.47;;;15.50;99.90;;;;;;10507804;28;20251;-83
2021/09/01 23:44:51;;;;;;;8.20;6.30;;;15.40;99.90;;;;;;10513860;28;20185;-82
2021/09/01 23:49:53;;;;;;;6.70;6.10;;;15.30;99.90;;;;;;10501339;28;20220;-82
2021/09/01 23:54:55;;;;;;;7.63;7.03;;;15.30;99.90;;;;;;10501757;28;20207;-84
2021/09/01 23:59:58;;;;;;;6.90;6.40;;;15.30;99.90;;;;;;10498165;28;20239;-83
